Time,TemperatureF,DewpointF,PressureIn,WindDirection,WindDirectionDegrees,WindSpeedMPH,WindSpeedGustMPH,Humidity,HourlyPrecipIn,Conditions,Clouds,dailyrainin,SoftwareType,DateUTC
2013-03-02 00:00:00,24.2,15.2,30.11,North,1,2.0,2.0,68,0.00,,OVC003,0.00,VWS V14.01,2013-03-02 05:00:00,
2013-03-02 00:02:00,24.2,15.2,30.11,NNW,327,3.0,3.0,68,0.00,,OVC003,0.00,VWS V14.01,2013-03-02 05:02:00,
2013-03-02 00:03:00,24.1,15.1,30.10,NNW,327,2.0,2.0,68,0.00,,OVC003,0.00,VWS V14.01,2013-03-02 05:03:00,
2013-03-02 00:04:00,24.1,15.1,30.10,NNW,328,2.0,0.0,68,0.00,,OVC003,0.00,VWS V14.01,2013-03-02 05:04:00,
2013-03-02 00:09:00,24.0,15.0,30.10,NNW,347,2.0,0.0,68,0.00,,OVC003,0.00,VWS V14.01,2013-03-02 05:09:00,
2013-03-02 00:14:00,23.9,14.9,30.10,ENE,63,2.0,2.0,68,0.00,,OVC003,0.00,VWS V14.01,2013-03-02 05:14:00,
2013-03-02 00:19:00,23.8,14.8,30.10,ENE,66,3.0,3.0,68,0.00,,OVC003,0.00,VWS V14.01,2013-03-02 05:19:00,
2013-03-02 00:24:00,23.8,14.8,30.10,NE,46,3.0,3.0,68,0.00,,OVC003,0.00,VWS V14.01,2013-03-02 05:24:00,
2013-03-02 00:29:00,23.6,14.6,30.10,North,354,4.0,4.0,68,0.00,,OVC003,0.00,VWS V14.01,2013-03-02 05:29:00,
2013-03-02 00:34:00,23.5,14.5,30.10,WNW,301,3.0,3.0,68,0.00,,OVC003,0.00,VWS V14.01,2013-03-02 05:34:00,
2013-03-02 00:39:00,23.4,14.8,30.10,NNE,21,2.0,2.0,69,0.00,,OVC003,0.00,VWS V14.01,2013-03-02 05:39:00,
2013-03-02 00:44:00,23.3,14.3,30.10,North,11,2.0,2.0,68,0.00,,OVC003,0.00,VWS V14.01,2013-03-02 05:44:00,
2013-03-02 00:49:00,23.2,14.2,30.10,North,5,2.0,0.0,68,0.00,,OVC003,0.00,VWS V14.01,2013-03-02 05:49:00,
2013-03-02 00:54:00,23.1,14.1,30.10,North,353,2.0,3.0,68,0.00,,OVC003,0.00,VWS V14.01,2013-03-02 05:54:00,
2013-03-02 00:59:00,23.0,14.4,30.10,NNE,26,3.0,3.0,69,0.00,,OVC003,0.00,VWS V14.01,2013-03-02 05:59:00,
2013-03-02 01:04:00,23.0,14.4,30.10,NE,36,2.0,3.0,69,0.00,,OVC003,0.00,VWS V14.01,2013-03-02 06:04:00,
2013-03-02 01:10:00,22.9,14.3,30.10,SW,227,2.0,0.0,69,0.00,,OVC003,0.00,VWS V14.01,2013-03-02 06:10:00,
2013-03-02 01:15:00,22.9,14.3,30.10,SW,226,3.0,3.0,69,0.00,,OVC003,0.00,VWS V14.01,2013-03-02 06:15:00,
2013-03-02 01:20:00,22.8,14.2,30.10,WNW,283,2.0,2.0,69,0.00,,OVC003,0.00,VWS V14.01,2013-03-02 06:20:00,
2013-03-02 01:25:00,22.7,14.1,30.10,NNE,12,3.0,3.0,69,0.00,,OVC003,0.00,VWS V14.01,2013-03-02 06:25:00,
2013-03-02 01:30:00,22.7,14.1,30.10,NNE,29,2.0,3.0,69,0.00,,OVC003,0.00,VWS V14.01,2013-03-02 06:30:00,
2013-03-02 01:35:00,22.6,14.0,30.09,NNE,14,2.0,0.0,69,0.00,,OVC003,0.00,VWS V14.01,2013-03-02 06:35:00,
2013-03-02 01:40:00,22.5,14.2,30.09,North,353,3.0,3.0,70,0.00,,OVC003,0.00,VWS V14.01,2013-03-02 06:40:00,
2013-03-02 01:45:00,22.5,14.2,30.09,North,353,2.0,2.0,70,0.00,,OVC003,0.00,VWS V14.01,2013-03-02 06:45:00,
2013-03-02 01:50:00,22.5,14.5,30.09,North,353,2.0,2.0,71,0.00,,OVC003,0.00,VWS V14.01,2013-03-02 06:50:00,
2013-03-02 01:55:00,22.5,14.5,30.09,NNE,25,5.0,5.0,71,0.00,,OVC003,0.00,VWS V14.01,2013-03-02 06:55:00,
2013-03-02 02:00:00,22.5,14.5,30.09,NNE,25,2.0,0.0,71,0.00,,OVC003,0.00,VWS V14.01,2013-03-02 07:00:00,
2013-03-02 02:05:00,22.5,14.5,30.09,North,349,2.0,2.0,71,0.00,,OVC003,0.00,VWS V14.01,2013-03-02 07:05:00,
2013-03-02 02:10:00,22.5,14.5,30.09,North,349,4.0,4.0,71,0.00,,OVC003,0.00,VWS V14.01,2013-03-02 07:10:00,
2013-03-02 02:15:00,22.5,14.5,30.09,North,349,2.0,2.0,71,0.00,,OVC003,0.00,VWS V14.01,2013-03-02 07:15:00,
2013-03-02 02:20:00,22.5,14.9,30.09,ENE,59,4.0,4.0,72,0.00,,OVC003,0.00,VWS V14.01,2013-03-02 07:20:00,
2013-03-02 03:41:00,21.8,14.8,30.08,NNE,21,2.0,2.0,74,0.00,,OVC003,0.00,VWS V14.01,2013-03-02 08:41:00,
2013-03-02 03:46:00,21.8,15.1,30.08,NNE,20,2.0,2.0,75,0.00,,OVC003,0.00,VWS V14.01,2013-03-02 08:46:00,
2013-03-02 03:51:00,21.8,15.1,30.08,West,278,3.0,3.0,75,0.00,,OVC003,0.00,VWS V14.01,2013-03-02 08:51:00,
2013-03-02 03:56:00,21.7,14.7,30.08,West,278,2.0,2.0,74,0.00,,OVC003,0.00,VWS V14.01,2013-03-02 08:56:00,
2013-03-02 04:01:00,21.6,14.6,30.08,WSW,241,3.0,4.0,74,0.00,,OVC003,0.00,VWS V14.01,2013-03-02 09:01:00,
2013-03-02 04:06:00,21.2,14.2,30.08,WSW,237,2.0,2.0,74,0.00,,OVC003,0.00,VWS V14.01,2013-03-02 09:06:00,
2013-03-02 04:11:00,21.1,14.1,30.08,WSW,238,2.0,2.0,74,0.00,,OVC003,0.00,VWS V14.01,2013-03-02 09:11:00,
2013-03-02 04:16:00,21.0,14.3,30.08,WSW,238,2.0,2.0,75,0.00,,OVC003,0.00,VWS V14.01,2013-03-02 09:16:00,
2013-03-02 04:21:00,21.0,14.3,30.08,North,358,2.0,2.0,75,0.00,,OVC003,0.00,VWS V14.01,2013-03-02 09:21:00,
2013-03-02 04:26:00,20.9,14.2,30.08,ENE,71,4.0,4.0,75,0.00,,OVC003,0.00,VWS V14.01,2013-03-02 09:26:00,
2013-03-02 04:31:00,20.8,14.1,30.08,North,3,2.0,2.0,75,0.00,,OVC003,0.00,VWS V14.01,2013-03-02 09:31:00,
2013-03-02 04:36:00,20.8,14.1,30.08,NNW,345,3.0,3.0,75,0.00,,OVC003,0.00,VWS V14.01,2013-03-02 09:36:00,
2013-03-02 04:41:00,20.8,14.1,30.08,NNW,345,3.0,3.0,75,0.00,,OVC003,0.00,VWS V14.01,2013-03-02 09:41:00,
2013-03-02 04:46:00,20.8,14.1,30.08,WSW,254,2.0,2.0,75,0.00,,OVC003,0.00,VWS V14.01,2013-03-02 09:46:00,
2013-03-02 04:51:00,20.8,14.1,30.07,NW,307,2.0,3.0,75,0.00,,OVC003,0.00,VWS V14.01,2013-03-02 09:51:00,
2013-03-02 04:56:00,20.7,14.0,30.07,NW,305,4.0,4.0,75,0.00,,OVC003,0.00,VWS V14.01,2013-03-02 09:56:00,
2013-03-02 05:01:00,20.7,14.4,30.07,NW,317,2.0,2.0,76,0.00,,OVC003,0.00,VWS V14.01,2013-03-02 10:01:00,
2013-03-02 05:08:00,20.8,14.4,30.08,West,259,4.0,4.0,76,0.00,,OVC003,0.00,VWS V14.01,2013-03-02 10:08:00,
2013-03-02 05:13:00,20.7,14.4,30.08,NNE,13,2.0,3.0,76,0.00,,OVC003,0.00,VWS V14.01,2013-03-02 10:13:00,
2013-03-02 05:18:00,20.7,14.4,30.08,NNE,24,3.0,3.0,76,0.00,,OVC003,0.00,VWS V14.01,2013-03-02 10:18:00,
2013-03-02 05:23:00,20.6,14.6,30.08,NNE,26,2.0,3.0,77,0.00,,OVC003,0.00,VWS V14.01,2013-03-02 10:23:00,
2013-03-02 05:28:00,20.6,14.6,30.08,NNE,26,3.0,3.0,77,0.00,,OVC003,0.00,VWS V14.01,2013-03-02 10:28:00,
2013-03-02 05:33:00,20.6,14.6,30.08,SW,234,4.0,4.0,77,0.00,,OVC003,0.00,VWS V14.01,2013-03-02 10:33:00,
2013-03-02 05:39:00,20.6,14.6,30.08,SW,232,3.0,3.0,77,0.00,,OVC003,0.00,VWS V14.01,2013-03-02 10:39:00,
2013-03-02 05:44:00,20.6,14.6,30.08,SW,232,2.0,0.0,77,0.00,,OVC003,0.00,VWS V14.01,2013-03-02 10:44:00,
2013-03-02 05:49:00,20.6,14.6,30.08,SW,232,3.0,3.0,77,0.00,,OVC003,0.00,VWS V14.01,2013-03-02 10:49:00,
2013-03-02 05:54:00,20.6,14.6,30.08,SW,232,2.0,2.0,77,0.00,,OVC003,0.00,VWS V14.01,2013-03-02 10:54:00,
2013-03-02 05:59:00,20.6,14.6,30.08,SW,232,3.0,3.0,77,0.00,,OVC003,0.00,VWS V14.01,2013-03-02 10:59:00,
2013-03-02 06:04:00,20.6,14.8,30.08,SW,232,4.0,4.0,78,0.00,,OVC003,0.00,VWS V14.01,2013-03-02 11:04:00,
2013-03-02 06:09:00,20.6,14.8,30.08,NW,312,4.0,4.0,78,0.00,,OVC003,0.00,VWS V14.01,2013-03-02 11:09:00,
2013-03-02 06:14:00,20.6,14.8,30.08,NW,322,2.0,2.0,78,0.00,,OVC003,0.00,VWS V14.01,2013-03-02 11:14:00,
2013-03-02 06:19:00,20.6,14.8,30.08,NW,322,2.0,2.0,78,0.00,,OVC003,0.00,VWS V14.01,2013-03-02 11:19:00,
2013-03-02 06:24:00,20.7,14.9,30.08,NNE,17,2.0,0.0,78,0.00,,OVC003,0.00,VWS V14.01,2013-03-02 11:24:00,
2013-03-02 06:29:00,20.7,14.9,30.08,North,355,4.0,4.0,78,0.00,,OVC003,0.00,VWS V14.01,2013-03-02 11:29:00,
2013-03-02 06:34:00,20.7,15.2,30.08,North,355,2.0,0.0,79,0.00,,OVC003,0.00,VWS V14.01,2013-03-02 11:34:00,
2013-03-02 06:39:00,20.7,15.2,30.08,NNW,331,2.0,0.0,79,0.00,,OVC003,0.00,VWS V14.01,2013-03-02 11:39:00,
2013-03-02 06:44:00,20.7,15.2,30.08,NNE,30,4.0,4.0,79,0.00,,OVC003,0.00,VWS V14.01,2013-03-02 11:44:00,
2013-03-02 06:49:00,20.7,15.2,30.08,East,83,3.0,3.0,79,0.00,,OVC003,0.00,VWS V14.01,2013-03-02 11:49:00,
2013-03-02 06:54:00,20.8,15.3,30.08,East,83,2.0,0.0,79,0.00,,OVC003,0.00,VWS V14.01,2013-03-02 11:54:00,
2013-03-02 06:59:00,20.8,15.3,30.08,East,82,2.0,0.0,79,0.00,,OVC003,0.00,VWS V14.01,2013-03-02 11:59:00,
2013-03-02 07:04:00,20.8,15.6,30.08,East,82,2.0,2.0,80,0.00,,OVC003,0.00,VWS V14.01,2013-03-02 12:04:00,
2013-03-02 07:09:00,20.8,15.6,30.08,East,83,2.0,0.0,80,0.00,,OVC003,0.00,VWS V14.01,2013-03-02 12:09:00,
2013-03-02 07:14:00,20.8,15.6,30.08,NE,45,4.0,4.0,80,0.00,,OVC003,0.00,VWS V14.01,2013-03-02 12:14:00,
2013-03-02 07:19:00,20.8,15.6,30.08,North,349,3.0,3.0,80,0.00,,OVC003,0.00,VWS V14.01,2013-03-02 12:19:00,
2013-03-02 07:24:00,20.8,15.6,30.08,North,349,2.0,0.0,80,0.00,,OVC003,0.00,VWS V14.01,2013-03-02 12:24:00,
2013-03-02 07:29:00,20.8,15.6,30.08,North,349,2.0,2.0,80,0.00,,OVC003,0.00,VWS V14.01,2013-03-02 12:29:00,
2013-03-02 07:34:00,20.8,15.6,30.08,North,353,3.0,3.0,80,0.00,,OVC003,0.00,VWS V14.01,2013-03-02 12:34:00,
2013-03-02 07:39:00,20.9,15.7,30.08,NE,36,4.0,4.0,80,0.00,,OVC003,0.00,VWS V14.01,2013-03-02 12:39:00,
2013-03-02 07:44:00,20.9,15.7,30.08,NE,46,2.0,2.0,80,0.00,,OVC003,0.00,VWS V14.01,2013-03-02 12:44:00,
2013-03-02 07:49:00,20.9,16.0,30.08,NE,41,2.0,2.0,81,0.00,,OVC003,0.00,VWS V14.01,2013-03-02 12:49:00,
2013-03-02 07:54:00,21.0,16.1,30.08,North,9,3.0,3.0,81,0.00,,OVC003,0.00,VWS V14.01,2013-03-02 12:54:00,
2013-03-02 07:59:00,21.0,16.1,30.08,North,11,2.0,2.0,81,0.00,,OVC003,0.00,VWS V14.01,2013-03-02 12:59:00,
2013-03-02 08:04:00,21.1,16.2,30.08,NW,326,3.0,3.0,81,0.00,,OVC003,0.00,VWS V14.01,2013-03-02 13:04:00,
2013-03-02 08:09:00,21.1,16.2,30.08,NNW,328,2.0,3.0,81,0.00,,OVC003,0.00,VWS V14.01,2013-03-02 13:09:00,
2013-03-02 08:14:00,21.2,16.3,30.08,North,356,2.0,2.0,81,0.00,,OVC003,0.00,VWS V14.01,2013-03-02 13:14:00,
2013-03-02 08:19:00,21.3,16.4,30.08,North,356,2.0,0.0,81,0.00,,OVC003,0.00,VWS V14.01,2013-03-02 13:19:00,
2013-03-02 08:24:00,21.4,16.5,30.08,North,356,4.0,4.0,81,0.00,,OVC003,0.00,VWS V14.01,2013-03-02 13:24:00,
2013-03-02 08:29:00,21.5,16.6,30.08,NNE,29,3.0,3.0,81,0.00,,OVC003,0.00,VWS V14.01,2013-03-02 13:29:00,
2013-03-02 08:34:00,21.6,16.7,30.09,NE,53,2.0,2.0,81,0.00,,OVC003,0.00,VWS V14.01,2013-03-02 13:34:00,
2013-03-02 08:40:00,21.6,16.4,30.09,NNW,340,3.0,4.0,80,0.00,,OVC003,0.00,VWS V14.01,2013-03-02 13:40:00,
2013-03-02 08:45:00,21.7,16.5,30.09,North,356,2.0,2.0,80,0.00,,OVC003,0.00,VWS V14.01,2013-03-02 13:45:00,
2013-03-02 08:50:00,21.8,16.6,30.09,NNE,14,3.0,3.0,80,0.00,,OVC003,0.00,VWS V14.01,2013-03-02 13:50:00,
2013-03-02 08:55:00,21.9,16.7,30.09,NNE,14,3.0,3.0,80,0.00,,OVC003,0.00,VWS V14.01,2013-03-02 13:55:00,
2013-03-02 09:00:00,22.0,16.8,30.09,NNE,21,2.0,3.0,80,0.00,,OVC003,0.00,VWS V14.01,2013-03-02 14:00:00,
2013-03-02 09:05:00,22.1,16.9,30.09,NNW,332,3.0,4.0,80,0.00,,OVC003,0.00,VWS V14.01,2013-03-02 14:05:00,
2013-03-02 09:10:00,22.2,17.0,30.09,NE,47,2.0,2.0,80,0.00,,OVC003,0.00,VWS V14.01,2013-03-02 14:10:00,
2013-03-02 09:15:00,22.3,17.1,30.09,North,11,4.0,4.0,80,0.00,,OVC003,0.00,VWS V14.01,2013-03-02 14:15:00,
2013-03-02 09:20:00,22.5,17.0,30.09,NNE,20,4.0,4.0,79,0.00,,OVC003,0.00,VWS V14.01,2013-03-02 14:20:00,
2013-03-02 09:25:00,22.6,17.1,30.09,NNE,24,3.0,3.0,79,0.00,,OVC003,0.00,VWS V14.01,2013-03-02 14:25:00,
2013-03-02 09:30:00,22.8,17.3,30.09,North,351,4.0,4.0,79,0.00,,OVC003,0.00,VWS V14.01,2013-03-02 14:30:00,
2013-03-02 09:35:00,22.7,16.9,30.09,NW,304,3.0,3.0,78,0.00,,OVC003,0.00,VWS V14.01,2013-03-02 14:35:00,
2013-03-02 09:40:00,22.7,16.9,30.09,North,354,2.0,3.0,78,0.00,,OVC003,0.00,VWS V14.01,2013-03-02 14:40:00,
2013-03-02 09:45:00,22.8,17.0,30.09,NNE,17,6.0,6.0,78,0.00,,OVC003,0.00,VWS V14.01,2013-03-02 14:45:00,
2013-03-02 09:50:00,22.9,17.1,30.09,North,1,3.0,5.0,78,0.00,,OVC003,0.00,VWS V14.01,2013-03-02 14:50:00,
2013-03-02 09:55:00,23.1,17.0,30.09,North,350,4.0,4.0,77,0.00,,OVC003,0.00,VWS V14.01,2013-03-02 14:55:00,
2013-03-02 10:00:00,23.2,17.1,30.09,NNE,28,2.0,3.0,77,0.00,,OVC003,0.00,VWS V14.01,2013-03-02 15:00:00,
2013-03-02 10:05:00,23.3,17.2,30.09,NE,37,2.0,3.0,77,0.00,,OVC003,0.00,VWS V14.01,2013-03-02 15:05:00,
2013-03-02 10:10:00,23.4,17.0,30.09,NNW,346,5.0,5.0,76,0.00,,OVC003,0.00,VWS V14.01,2013-03-02 15:10:00,
2013-03-02 10:15:00,23.5,17.1,30.09,NE,35,2.0,3.0,76,0.00,,OVC003,0.00,VWS V14.01,2013-03-02 15:15:00,
2013-03-02 10:20:00,23.5,17.1,30.09,ESE,122,3.0,3.0,76,0.00,,OVC003,0.00,VWS V14.01,2013-03-02 15:20:00,
2013-03-02 10:25:00,23.6,17.2,30.09,NE,34,2.0,2.0,76,0.00,,OVC003,0.00,VWS V14.01,2013-03-02 15:25:00,
2013-03-02 10:30:00,23.7,17.0,30.09,North,8,4.0,4.0,75,0.00,,OVC003,0.00,VWS V14.01,2013-03-02 15:30:00,
2013-03-02 10:35:00,23.6,16.9,30.09,North,358,2.0,3.0,75,0.00,,OVC003,0.00,VWS V14.01,2013-03-02 15:35:00,
2013-03-02 10:40:00,23.6,16.5,30.09,ENE,58,4.0,4.0,74,0.00,,OVC003,0.00,VWS V14.01,2013-03-02 15:40:00,
2013-03-02 10:45:00,23.6,16.5,30.09,SW,226,3.0,5.0,74,0.00,,OVC003,0.00,VWS V14.01,2013-03-02 15:45:00,
2013-03-02 10:50:00,23.7,16.6,30.09,NNE,23,3.0,5.0,74,0.00,,OVC003,0.00,VWS V14.01,2013-03-02 15:50:00,
2013-03-02 10:55:00,23.6,16.2,30.09,NW,305,5.0,5.0,73,0.00,,OVC003,0.00,VWS V14.01,2013-03-02 15:55:00,
2013-03-02 11:00:00,23.5,16.1,30.09,NE,40,3.0,4.0,73,0.00,,OVC003,0.00,VWS V14.01,2013-03-02 16:00:00,
2013-03-02 11:05:00,23.4,16.0,30.09,North,353,2.0,3.0,73,0.00,,OVC003,0.00,VWS V14.01,2013-03-02 16:05:00,
2013-03-02 11:14:00,23.8,16.4,30.09,NNE,20,2.0,4.0,73,0.00,,OVC003,0.00,VWS V14.01,2013-03-02 16:14:00,
2013-03-02 11:19:00,23.6,15.9,30.10,North,359,5.0,6.0,72,0.00,,OVC003,0.00,VWS V14.01,2013-03-02 16:19:00,
2013-03-02 11:24:00,23.5,15.8,30.10,ENE,63,2.0,3.0,72,0.00,,OVC003,0.00,VWS V14.01,2013-03-02 16:24:00,
2013-03-02 11:29:00,23.5,15.8,30.10,ENE,65,4.0,4.0,72,0.00,,OVC003,0.00,VWS V14.01,2013-03-02 16:29:00,
2013-03-02 11:34:00,23.4,15.7,30.10,NNE,22,2.0,2.0,72,0.00,,OVC003,0.00,VWS V14.01,2013-03-02 16:34:00,
2013-03-02 11:39:00,23.4,15.7,30.10,ENE,68,2.0,2.0,72,0.00,,OVC003,0.00,VWS V14.01,2013-03-02 16:39:00,
2013-03-02 11:44:00,23.5,15.8,30.10,NE,55,2.0,4.0,72,0.00,,OVC003,0.00,VWS V14.01,2013-03-02 16:44:00,
2013-03-02 11:49:00,23.6,16.2,30.10,North,357,5.0,5.0,73,0.00,,OVC003,0.00,VWS V14.01,2013-03-02 16:49:00,
2013-03-02 11:54:00,23.7,16.0,30.10,North,8,4.0,4.0,72,0.00,,OVC003,0.00,VWS V14.01,2013-03-02 16:54:00,
2013-03-02 11:59:00,23.7,16.0,30.10,WSW,237,3.0,3.0,72,0.00,,OVC003,0.00,VWS V14.01,2013-03-02 16:59:00,
2013-03-02 12:04:00,23.7,16.0,30.10,NNW,341,2.0,2.0,72,0.00,,OVC003,0.00,VWS V14.01,2013-03-02 17:04:00,
2013-03-02 12:09:00,23.8,16.1,30.10,NNW,342,4.0,4.0,72,0.00,,OVC003,0.00,VWS V14.01,2013-03-02 17:09:00,
2013-03-02 12:14:00,23.9,16.2,30.10,NNE,26,3.0,3.0,72,0.00,,OVC003,0.00,VWS V14.01,2013-03-02 17:14:00,
2013-03-02 12:20:00,24.1,16.4,30.09,NNW,339,4.0,4.0,72,0.00,,OVC003,0.00,VWS V14.01,2013-03-02 17:20:00,
2013-03-02 12:25:00,24.2,16.2,30.09,SE,137,2.0,2.0,71,0.00,,OVC003,0.00,VWS V14.01,2013-03-02 17:25:00,
2013-03-02 12:30:00,24.6,16.5,30.09,North,357,2.0,3.0,71,0.00,,OVC003,0.00,VWS V14.01,2013-03-02 17:30:00,
2013-03-02 12:35:00,24.9,16.8,30.09,North,357,2.0,0.0,71,0.00,,OVC003,0.00,VWS V14.01,2013-03-02 17:35:00,
2013-03-02 12:40:00,25.2,16.8,30.09,NNE,27,4.0,4.0,70,0.00,,OVC003,0.00,VWS V14.01,2013-03-02 17:40:00,
2013-03-02 12:45:00,25.1,16.4,30.09,SW,222,3.0,3.0,69,0.00,,OVC003,0.00,VWS V14.01,2013-03-02 17:45:00,
2013-03-02 12:50:00,25.3,16.6,30.08,NE,41,2.0,3.0,69,0.00,,OVC003,0.00,VWS V14.01,2013-03-02 17:50:00,
2013-03-02 12:55:00,25.4,16.3,30.08,ENE,60,2.0,5.0,68,0.00,,OVC003,0.00,VWS V14.01,2013-03-02 17:55:00,
2013-03-02 13:00:00,25.6,16.5,30.08,ENE,77,3.0,4.0,68,0.00,,OVC003,0.00,VWS V14.01,2013-03-02 18:00:00,
2013-03-02 13:05:00,25.6,16.2,30.08,NE,55,2.0,2.0,67,0.00,,OVC003,0.00,VWS V14.01,2013-03-02 18:05:00,
2013-03-02 13:10:00,25.6,16.2,30.08,North,357,4.0,4.0,67,0.00,,OVC003,0.00,VWS V14.01,2013-03-02 18:10:00,
2013-03-02 13:15:00,25.6,16.2,30.08,NE,44,5.0,5.0,67,0.00,,OVC003,0.00,VWS V14.01,2013-03-02 18:15:00,
2013-03-02 13:20:00,25.7,16.3,30.07,NNE,19,3.0,3.0,67,0.00,,OVC003,0.00,VWS V14.01,2013-03-02 18:20:00,
2013-03-02 13:25:00,25.7,15.9,30.07,NNE,31,2.0,2.0,66,0.00,,OVC003,0.00,VWS V14.01,2013-03-02 18:25:00,
2013-03-02 13:30:00,25.8,16.4,30.07,NNE,13,3.0,3.0,67,0.00,,OVC003,0.00,VWS V14.01,2013-03-02 18:30:00,
2013-03-02 13:35:00,25.9,16.1,30.07,North,11,2.0,3.0,66,0.00,,OVC003,0.00,VWS V14.01,2013-03-02 18:35:00,
2013-03-02 13:40:00,25.9,16.1,30.07,NE,41,5.0,5.0,66,0.00,,OVC003,0.00,VWS V14.01,2013-03-02 18:40:00,
2013-03-02 13:45:00,26.1,16.7,30.07,ENE,58,2.0,0.0,67,0.00,,OVC003,0.00,VWS V14.01,2013-03-02 18:45:00,
2013-03-02 13:50:00,26.3,16.5,30.07,NNE,22,3.0,3.0,66,0.00,,OVC003,0.00,VWS V14.01,2013-03-02 18:50:00,
2013-03-02 13:55:00,26.4,16.6,30.07,NE,36,4.0,4.0,66,0.00,,OVC003,0.00,VWS V14.01,2013-03-02 18:55:00,
2013-03-02 14:00:00,26.5,16.7,30.07,NNE,24,3.0,4.0,66,0.00,,OVC003,0.00,VWS V14.01,2013-03-02 19:00:00,
2013-03-02 14:05:00,26.6,16.1,30.06,ENE,72,2.0,3.0,64,0.00,,OVC003,0.00,VWS V14.01,2013-03-02 19:05:00,
2013-03-02 14:10:00,26.5,16.3,30.06,NE,35,4.0,4.0,65,0.00,,OVC003,0.00,VWS V14.01,2013-03-02 19:10:00,
2013-03-02 14:15:00,26.6,16.4,30.06,ESE,118,4.0,4.0,65,0.00,,OVC003,0.00,VWS V14.01,2013-03-02 19:15:00,
2013-03-02 14:20:00,26.6,16.4,30.06,East,98,3.0,3.0,65,0.00,,OVC003,0.00,VWS V14.01,2013-03-02 19:20:00,
2013-03-02 14:25:00,26.6,16.4,30.06,ENE,62,3.0,3.0,65,0.00,,OVC003,0.00,VWS V14.01,2013-03-02 19:25:00,
2013-03-02 14:30:00,26.5,16.7,30.06,ENE,60,3.0,3.0,66,0.00,,OVC003,0.00,VWS V14.01,2013-03-02 19:30:00,
2013-03-02 14:35:00,26.6,16.8,30.06,NE,35,3.0,4.0,66,0.00,,OVC003,0.00,VWS V14.01,2013-03-02 19:35:00,
2013-03-02 14:41:00,26.5,16.7,30.06,NE,41,4.0,4.0,66,0.00,,OVC003,0.00,VWS V14.01,2013-03-02 19:41:00,
2013-03-02 14:46:00,26.4,16.9,30.06,NE,39,2.0,0.0,67,0.00,,OVC003,0.00,VWS V14.01,2013-03-02 19:46:00,
2013-03-02 14:51:00,26.4,16.9,30.06,NE,40,4.0,4.0,67,0.00,,OVC003,0.00,VWS V14.01,2013-03-02 19:51:00,
2013-03-02 14:56:00,26.3,16.9,30.06,ENE,63,2.0,2.0,67,0.00,,OVC003,0.00,VWS V14.01,2013-03-02 19:56:00,
2013-03-02 15:01:00,26.2,16.8,30.06,ENE,62,3.0,3.0,67,0.00,,OVC003,0.00,VWS V14.01,2013-03-02 20:01:00,
2013-03-02 15:06:00,26.2,16.8,30.06,ENE,59,2.0,2.0,67,0.00,,OVC003,0.00,VWS V14.01,2013-03-02 20:06:00,
2013-03-02 15:11:00,26.3,17.2,30.06,NE,37,2.0,5.0,68,0.00,,OVC003,0.00,VWS V14.01,2013-03-02 20:11:00,
2013-03-02 15:16:00,26.4,17.6,30.06,SSW,199,4.0,4.0,69,0.00,,OVC003,0.00,VWS V14.01,2013-03-02 20:16:00,
2013-03-02 15:21:00,26.4,17.3,30.05,NW,306,2.0,4.0,68,0.00,,OVC003,0.00,VWS V14.01,2013-03-02 20:21:00,
2013-03-02 15:26:00,26.5,17.7,30.05,NW,306,3.0,3.0,69,0.00,,OVC003,0.00,VWS V14.01,2013-03-02 20:26:00,
2013-03-02 15:31:00,26.6,17.8,30.05,West,279,2.0,2.0,69,0.00,,OVC003,0.00,VWS V14.01,2013-03-02 20:31:00,
2013-03-02 15:36:00,26.4,16.9,30.05,NW,306,3.0,4.0,67,0.00,,OVC003,0.00,VWS V14.01,2013-03-02 20:36:00,
2013-03-02 15:41:00,26.3,16.9,30.05,NNE,16,5.0,5.0,67,0.00,,OVC003,0.00,VWS V14.01,2013-03-02 20:41:00,
2013-03-02 15:46:00,26.2,16.8,30.05,NNE,28,2.0,2.0,67,0.00,,OVC003,0.00,VWS V14.01,2013-03-02 20:46:00,
2013-03-02 15:51:00,26.3,16.9,30.05,ENE,65,3.0,3.0,67,0.00,,OVC003,0.00,VWS V14.01,2013-03-02 20:51:00,
2013-03-02 15:56:00,26.3,17.2,30.05,North,5,3.0,3.0,68,0.00,,OVC003,0.00,VWS V14.01,2013-03-02 20:56:00,
2013-03-02 16:01:00,26.2,17.1,30.05,NNE,18,4.0,4.0,68,0.00,,OVC003,0.00,VWS V14.01,2013-03-02 21:01:00,
2013-03-02 16:06:00,26.2,17.1,30.05,NNE,17,2.0,0.0,68,0.00,,OVC003,0.00,VWS V14.01,2013-03-02 21:06:00,
2013-03-02 16:11:00,26.2,17.1,30.05,NNE,20,2.0,0.0,68,0.00,,OVC003,0.00,VWS V14.01,2013-03-02 21:11:00,
2013-03-02 16:16:00,26.2,16.8,30.05,NNE,16,2.0,4.0,67,0.00,,OVC003,0.00,VWS V14.01,2013-03-02 21:16:00,
2013-03-02 16:21:00,26.2,17.1,30.05,West,268,2.0,3.0,68,0.00,,OVC003,0.00,VWS V14.01,2013-03-02 21:21:00,
2013-03-02 16:26:00,26.2,16.8,30.05,NNW,345,3.0,5.0,67,0.00,,OVC003,0.00,VWS V14.01,2013-03-02 21:26:00,
2013-03-02 16:31:00,26.3,17.2,30.05,NNW,345,2.0,2.0,68,0.00,,OVC003,0.00,VWS V14.01,2013-03-02 21:31:00,
2013-03-02 16:36:00,26.3,16.9,30.05,WSW,240,2.0,2.0,67,0.00,,OVC003,0.00,VWS V14.01,2013-03-02 21:36:00,
2013-03-02 16:41:00,26.3,16.9,30.05,NE,35,2.0,2.0,67,0.00,,OVC003,0.00,VWS V14.01,2013-03-02 21:41:00,
2013-03-02 16:46:00,26.3,16.9,30.05,NNE,28,3.0,3.0,67,0.00,,OVC003,0.00,VWS V14.01,2013-03-02 21:46:00,
2013-03-02 16:51:00,26.3,16.9,30.05,NNE,22,2.0,2.0,67,0.00,,OVC003,0.00,VWS V14.01,2013-03-02 21:51:00,
2013-03-02 16:56:00,26.3,16.9,30.05,SW,220,2.0,2.0,67,0.00,,OVC003,0.00,VWS V14.01,2013-03-02 21:56:00,
2013-03-02 17:02:00,26.4,17.3,30.05,SW,220,2.0,2.0,68,0.00,,OVC003,0.00,VWS V14.01,2013-03-02 22:02:00,
2013-03-02 17:07:00,26.3,16.9,30.06,NNE,12,2.0,2.0,67,0.00,,OVC003,0.00,VWS V14.01,2013-03-02 22:07:00,
2013-03-02 17:12:00,26.2,16.8,30.06,NNE,12,2.0,0.0,67,0.00,,OVC003,0.00,VWS V14.01,2013-03-02 22:12:00,
2013-03-02 17:17:00,26.2,17.1,30.06,WNW,286,2.0,2.0,68,0.00,,OVC003,0.00,VWS V14.01,2013-03-02 22:17:00,
2013-03-02 17:22:00,26.3,17.2,30.06,WNW,286,2.0,2.0,68,0.00,,OVC003,0.00,VWS V14.01,2013-03-02 22:22:00,
2013-03-02 17:27:00,26.3,17.2,30.06,WNW,286,2.0,2.0,68,0.00,,OVC003,0.00,VWS V14.01,2013-03-02 22:27:00,
2013-03-02 17:32:00,26.4,17.3,30.06,WNW,287,2.0,2.0,68,0.00,,OVC003,0.00,VWS V14.01,2013-03-02 22:32:00,
2013-03-02 17:37:00,26.6,17.5,30.06,WNW,286,2.0,0.0,68,0.00,,OVC003,0.00,VWS V14.01,2013-03-02 22:37:00,
2013-03-02 17:42:00,26.6,17.1,30.06,WNW,282,2.0,2.0,67,0.00,,OVC003,0.00,VWS V14.01,2013-03-02 22:42:00,
2013-03-02 17:47:00,26.7,17.2,30.06,WNW,282,2.0,0.0,67,0.00,,OVC003,0.00,VWS V14.01,2013-03-02 22:47:00,
2013-03-02 17:52:00,26.6,17.1,30.05,WNW,282,2.0,2.0,67,0.00,,OVC003,0.00,VWS V14.01,2013-03-02 22:52:00,
2013-03-02 17:57:00,26.5,17.0,30.05,WNW,282,2.0,0.0,67,0.00,,OVC003,0.00,VWS V14.01,2013-03-02 22:57:00,
2013-03-02 18:02:00,26.3,16.9,30.05,WNW,282,2.0,0.0,67,0.00,,OVC003,0.00,VWS V14.01,2013-03-02 23:02:00,
2013-03-02 18:07:00,26.2,16.8,30.05,WNW,282,2.0,0.0,67,0.00,,OVC003,0.00,VWS V14.01,2013-03-02 23:07:00,
2013-03-02 18:12:00,26.2,16.8,30.05,WNW,282,2.0,0.0,67,0.00,,OVC003,0.00,VWS V14.01,2013-03-02 23:12:00,
2013-03-02 18:17:00,26.0,16.6,30.05,WNW,282,2.0,0.0,67,0.00,,OVC003,0.00,VWS V14.01,2013-03-02 23:17:00,
2013-03-02 18:22:00,25.8,16.7,30.05,WNW,282,2.0,0.0,68,0.00,,OVC003,0.00,VWS V14.01,2013-03-02 23:22:00,
2013-03-02 18:27:00,25.6,16.5,30.05,WNW,282,2.0,0.0,68,0.00,,OVC003,0.00,VWS V14.01,2013-03-02 23:27:00,
2013-03-02 18:32:00,25.3,16.2,30.05,WNW,282,2.0,0.0,68,0.00,,OVC003,0.00,VWS V14.01,2013-03-02 23:32:00,
2013-03-02 18:37:00,25.1,16.4,30.05,WNW,282,2.0,0.0,69,0.00,,OVC003,0.00,VWS V14.01,2013-03-02 23:37:00,
2013-03-02 18:42:00,24.9,16.5,30.05,WNW,282,2.0,0.0,70,0.00,,OVC003,0.00,VWS V14.01,2013-03-02 23:42:00,
2013-03-02 18:47:00,24.6,15.9,30.05,WNW,282,2.0,0.0,69,0.00,,OVC003,0.00,VWS V14.01,2013-03-02 23:47:00,
2013-03-02 18:52:00,24.4,16.0,30.05,WNW,282,2.0,0.0,70,0.00,,OVC003,0.00,VWS V14.01,2013-03-02 23:52:00,
2013-03-02 18:57:00,24.0,16.0,30.05,WNW,282,2.0,0.0,71,0.00,,OVC003,0.00,VWS V14.01,2013-03-02 23:57:00,
2013-03-02 19:02:00,23.8,15.8,30.05,WNW,282,2.0,0.0,71,0.00,,OVC003,0.00,VWS V14.01,2013-03-03 00:02:00,
2013-03-02 19:07:00,23.4,15.7,30.06,WNW,282,2.0,0.0,72,0.00,,OVC003,0.00,VWS V14.01,2013-03-03 00:07:00,
2013-03-02 19:12:00,23.1,15.4,30.06,WNW,282,2.0,0.0,72,0.00,,OVC003,0.00,VWS V14.01,2013-03-03 00:12:00,
2013-03-02 19:17:00,22.8,15.5,30.06,WNW,282,2.0,0.0,73,0.00,,OVC003,0.00,VWS V14.01,2013-03-03 00:17:00,
2013-03-02 19:22:00,22.5,15.2,30.06,WNW,282,2.0,0.0,73,0.00,,OVC003,0.00,VWS V14.01,2013-03-03 00:22:00,
2013-03-02 19:27:00,22.2,15.2,30.06,WNW,282,2.0,0.0,74,0.00,,OVC003,0.00,VWS V14.01,2013-03-03 00:27:00,
2013-03-02 19:32:00,22.0,15.0,30.06,WNW,282,2.0,0.0,74,0.00,,OVC003,0.00,VWS V14.01,2013-03-03 00:32:00,
2013-03-02 19:37:00,21.8,15.1,30.06,WNW,282,2.0,0.0,75,0.00,,OVC003,0.00,VWS V14.01,2013-03-03 00:37:00,
2013-03-02 19:43:00,21.5,14.8,30.06,WNW,282,2.0,0.0,75,0.00,,OVC003,0.00,VWS V14.01,2013-03-03 00:43:00,
2013-03-02 19:48:00,21.3,14.6,30.06,WNW,282,2.0,0.0,75,0.00,,OVC003,0.00,VWS V14.01,2013-03-03 00:48:00,
2013-03-02 19:53:00,21.1,14.7,30.06,WNW,282,2.0,0.0,76,0.00,,OVC003,0.00,VWS V14.01,2013-03-03 00:53:00,
2013-03-02 19:58:00,20.9,14.5,30.06,WNW,282,2.0,0.0,76,0.00,,OVC003,0.00,VWS V14.01,2013-03-03 00:58:00,
2013-03-02 20:03:00,20.7,14.4,30.06,WNW,282,2.0,0.0,76,0.00,,OVC003,0.00,VWS V14.01,2013-03-03 01:03:00,
2013-03-02 20:08:00,20.6,14.6,30.06,WNW,282,2.0,0.0,77,0.00,,OVC003,0.00,VWS V14.01,2013-03-03 01:08:00,
2013-03-02 20:13:00,20.5,14.4,30.06,WNW,282,2.0,0.0,77,0.00,,OVC003,0.00,VWS V14.01,2013-03-03 01:13:00,
2013-03-02 20:18:00,20.5,14.7,30.06,WNW,282,2.0,0.0,78,0.00,,OVC003,0.00,VWS V14.01,2013-03-03 01:18:00,
2013-03-02 20:23:00,20.6,14.8,30.06,WNW,282,2.0,0.0,78,0.00,,OVC003,0.00,VWS V14.01,2013-03-03 01:23:00,
2013-03-02 20:28:00,20.6,14.8,30.06,WNW,282,2.0,0.0,78,0.00,,OVC003,0.00,VWS V14.01,2013-03-03 01:28:00,
2013-03-02 20:33:00,20.7,14.9,30.05,WNW,282,2.0,0.0,78,0.00,,OVC003,0.00,VWS V14.01,2013-03-03 01:33:00,
2013-03-02 20:38:00,20.7,15.2,30.05,WNW,282,2.0,0.0,79,0.00,,OVC003,0.00,VWS V14.01,2013-03-03 01:38:00,
2013-03-02 20:43:00,20.8,15.3,30.05,WNW,282,2.0,0.0,79,0.00,,OVC003,0.00,VWS V14.01,2013-03-03 01:43:00,
2013-03-02 20:48:00,20.9,15.4,30.05,WNW,282,2.0,0.0,79,0.00,,OVC003,0.00,VWS V14.01,2013-03-03 01:48:00,
2013-03-02 20:53:00,21.0,15.5,30.05,WNW,282,2.0,0.0,79,0.00,,OVC003,0.00,VWS V14.01,2013-03-03 01:53:00,
2013-03-02 20:58:00,21.2,15.7,30.05,WNW,282,2.0,0.0,79,0.00,,OVC003,0.00,VWS V14.01,2013-03-03 01:58:00,
2013-03-02 21:03:00,21.3,15.8,30.05,WNW,282,2.0,0.0,79,0.00,,OVC003,0.00,VWS V14.01,2013-03-03 02:03:00,
2013-03-02 21:08:00,21.4,15.9,30.05,WNW,282,2.0,0.0,79,0.00,,OVC003,0.00,VWS V14.01,2013-03-03 02:08:00,
2013-03-02 21:13:00,21.6,16.1,30.05,WNW,282,2.0,0.0,79,0.00,,OVC003,0.00,VWS V14.01,2013-03-03 02:13:00,
2013-03-02 21:18:00,21.7,16.2,30.05,WNW,282,2.0,2.0,79,0.00,,OVC003,0.00,VWS V14.01,2013-03-03 02:18:00,
2013-03-02 21:23:00,21.9,16.4,30.05,WNW,282,2.0,0.0,79,0.00,,OVC003,0.00,VWS V14.01,2013-03-03 02:23:00,
2013-03-02 21:28:00,22.1,16.3,30.05,WNW,282,3.0,3.0,78,0.00,,OVC003,0.00,VWS V14.01,2013-03-03 02:28:00,
2013-03-02 21:33:00,22.3,16.2,30.05,WNW,282,2.0,2.0,77,0.00,,OVC003,0.00,VWS V14.01,2013-03-03 02:33:00,
2013-03-02 21:38:00,22.5,16.4,30.05,WNW,282,2.0,3.0,77,0.00,,OVC003,0.00,VWS V14.01,2013-03-03 02:38:00,
2013-03-02 21:43:00,22.6,16.2,30.05,WNW,282,2.0,2.0,76,0.00,,OVC003,0.00,VWS V14.01,2013-03-03 02:43:00,
2013-03-02 21:48:00,22.7,16.0,30.05,WNW,284,2.0,2.0,75,0.00,,OVC003,0.00,VWS V14.01,2013-03-03 02:48:00,
2013-03-02 21:53:00,22.7,16.0,30.05,NNE,28,2.0,4.0,75,0.00,,OVC003,0.00,VWS V14.01,2013-03-03 02:53:00,
2013-03-02 21:58:00,22.7,15.7,30.05,NE,39,3.0,3.0,74,0.00,,OVC003,0.00,VWS V14.01,2013-03-03 02:58:00,
2013-03-02 22:03:00,22.8,15.8,30.05,NE,39,2.0,0.0,74,0.00,,OVC003,0.00,VWS V14.01,2013-03-03 03:03:00,
2013-03-02 22:08:00,22.7,15.7,30.05,NE,42,2.0,2.0,74,0.00,,OVC003,0.00,VWS V14.01,2013-03-03 03:08:00,
2013-03-02 22:13:00,22.7,15.4,30.05,NNW,345,2.0,2.0,73,0.00,,OVC003,0.00,VWS V14.01,2013-03-03 03:13:00,
2013-03-02 22:18:00,22.7,15.4,30.05,NNW,345,2.0,2.0,73,0.00,,OVC003,0.00,VWS V14.01,2013-03-03 03:18:00,
2013-03-02 22:23:00,22.7,15.4,30.05,NE,44,2.0,3.0,73,0.00,,OVC003,0.00,VWS V14.01,2013-03-03 03:23:00,
2013-03-02 22:28:00,22.7,15.7,30.05,NE,44,2.0,2.0,74,0.00,,OVC003,0.00,VWS V14.01,2013-03-03 03:28:00,
2013-03-02 22:33:00,22.7,15.7,30.06,NE,44,2.0,2.0,74,0.00,,OVC003,0.00,VWS V14.01,2013-03-03 03:33:00,
2013-03-02 22:38:00,22.8,15.8,30.06,NE,44,2.0,2.0,74,0.00,,OVC003,0.00,VWS V14.01,2013-03-03 03:38:00,
2013-03-02 22:43:00,22.9,15.9,30.06,NE,44,2.0,2.0,74,0.00,,OVC003,0.00,VWS V14.01,2013-03-03 03:43:00,
2013-03-02 22:48:00,22.9,15.9,30.05,NE,44,2.0,2.0,74,0.00,,OVC003,0.00,VWS V14.01,2013-03-03 03:48:00,
2013-03-02 22:53:00,22.9,15.9,30.05,NE,44,2.0,0.0,74,0.00,,OVC003,0.00,VWS V14.01,2013-03-03 03:53:00,
2013-03-02 22:58:00,22.9,16.2,30.05,NE,44,2.0,0.0,75,0.00,,OVC003,0.00,VWS V14.01,2013-03-03 03:58:00,
2013-03-02 23:03:00,22.9,16.2,30.05,NE,44,2.0,0.0,75,0.00,,OVC003,0.00,VWS V14.01,2013-03-03 04:03:00,
2013-03-02 23:08:00,22.9,16.2,30.05,NE,44,2.0,0.0,75,0.00,,OVC003,0.00,VWS V14.01,2013-03-03 04:08:00,
2013-03-02 23:14:00,22.9,16.2,30.05,NE,44,2.0,0.0,75,0.00,,OVC003,0.00,VWS V14.01,2013-03-03 04:14:00,
2013-03-02 23:18:00,22.8,16.1,30.05,NE,44,2.0,0.0,75,0.00,,OVC003,0.00,VWS V14.01,2013-03-03 04:18:00,
2013-03-02 23:24:00,22.7,16.0,30.05,NE,44,2.0,0.0,75,0.00,,OVC003,0.00,VWS V14.01,2013-03-03 04:24:00,
2013-03-02 23:29:00,22.5,15.8,30.05,NE,44,2.0,0.0,75,0.00,,OVC003,0.00,VWS V14.01,2013-03-03 04:29:00,
2013-03-02 23:34:00,22.2,15.5,30.05,NE,44,3.0,3.0,75,0.00,,OVC003,0.00,VWS V14.01,2013-03-03 04:34:00,
2013-03-02 23:39:00,21.8,15.1,30.05,NE,44,2.0,0.0,75,0.00,,OVC003,0.00,VWS V14.01,2013-03-03 04:39:00,
2013-03-02 23:44:00,21.5,14.8,30.05,NE,44,2.0,0.0,75,0.00,,OVC003,0.00,VWS V14.01,2013-03-03 04:44:00,
2013-03-02 23:49:00,21.2,14.5,30.05,NE,44,2.0,0.0,75,0.00,,OVC003,0.00,VWS V14.01,2013-03-03 04:49:00,
2013-03-02 23:54:00,20.9,14.2,30.05,NE,44,2.0,0.0,75,0.00,,OVC003,0.00,VWS V14.01,2013-03-03 04:54:00,
2013-03-02 23:59:00,20.8,14.1,30.05,NE,44,2.0,0.0,75,0.00,,OVC003,0.00,VWS V14.01,2013-03-03 04:59:00,